MSC Jordan — HPMK — position and weather

sailwx.info

Track history (hours):
 
Tides and Currents Weather Stations Pressure Air Temp Water Temp Dewpoint Dewpoint Depression Visibility Wind Speed Wind Dir Waves Ship Positions

MSC Jordan

Last reported at 2017-Sep-20 02:00 UTC. Time now 2017-Sep-20 02:15 UTC.
Position N 59°52' E 030°12'.

Length 237 m; draft 8 m.

Type: Ship. MMSI: 355194000.

Date/timePositionNaut miles runAvg speedWind from/ knotsBaromVisibWave heightAir tempDewpointWater temp
2017-Sep-20 02:00N 59°52' E 030°12'0 0.0
2017-Sep-20 01:30N 59°52' E 030°12'0 0.0
2017-Sep-20 01:00N 59°52' E 030°12'0 0.0
2017-Sep-20 00:24N 59°52' E 030°12'0 0.0
2017-Sep-20 00:00N 59°52' E 030°12'0 0.0
2017-Sep-19 23:30N 59°52' E 030°12'0 0.0
2017-Sep-19 23:00N 59°52' E 030°12'0 0.0
2017-Sep-19 22:30N 59°52' E 030°12'0 0.0
2017-Sep-19 22:00N 59°52' E 030°12'0 0.0
2017-Sep-19 21:30N 59°52' E 030°12'0 0.0
2017-Sep-19 20:54N 59°52' E 030°12'0 0.0
2017-Sep-19 20:30N 59°52' E 030°12'0 0.0
2017-Sep-19 19:48N 59°52' E 030°12'0 0.0
2017-Sep-19 19:30N 59°52' E 030°12'0 0.0
2017-Sep-19 18:54N 59°52' E 030°12'0 0.0
2017-Sep-19 18:24N 59°52' E 030°12'0 0.0
2017-Sep-19 18:00N 59°52' E 030°12'0 0.0
2017-Sep-19 17:30N 59°52' E 030°12'0 0.0
2017-Sep-19 16:48N 59°52' E 030°12'0 0.0
2017-Sep-19 16:30N 59°52' E 030°12'0 0.0
2017-Sep-19 16:00N 59°52' E 030°12'0 0.0
2017-Sep-19 15:24N 59°52' E 030°12'0 0.0
2017-Sep-19 15:00N 59°52' E 030°12'1 1.4
2017-Sep-19 14:30N 59°53' E 030°11'3 6.2
2017-Sep-19 14:00N 59°54' E 030°06'510.5
2017-Sep-19 13:30N 59°56' E 029°56'511.0
2017-Sep-19 13:00N 59°59' E 029°46'5 9.7
2017-Sep-19 12:30N 60°00' E 029°37'510.6
2017-Sep-19 12:00N 60°01' E 029°27'14 9.0
2017-Sep-19 10:25N 60°02' E 028°58'410.7
2017-Sep-19 10:00N 60°02' E 028°49'510.7
2017-Sep-19 09:30N 60°02' E 028°38'510.4
2017-Sep-19 09:00N 60°03' E 028°28'5 9.7
2017-Sep-19 08:30N 60°05' E 028°20'510.3
2017-Sep-19 08:00N 60°08' E 028°11'510.7
2017-Sep-19 07:30N 60°09' E 028°00'510.8
2017-Sep-19 07:00N 60°10' E 027°50'4 9.0
2017-Sep-19 06:30N 60°09' E 027°41'510.3
2017-Sep-19 06:00N 60°06' E 027°32'917.9
2017-Sep-19 05:30N 60°02' E 027°17'917.4
2017-Sep-19 05:00N 59°58' E 027°02'612.4
2017-Sep-19 04:30N 59°59' E 026°49'611.6
2017-Sep-19 04:00N 59°59' E 026°38'611.3
2017-Sep-19 03:30N 59°58' E 026°27'611.3
2017-Sep-19 03:00N 59°56' E 026°16'3911.6
2017-Sep-18 23:36N 59°47' E 024°60'111.6
2017-Sep-18 23:30N 59°46' E 024°58'611.6
2017-Sep-18 23:00N 59°45' E 024°46'611.7
2017-Sep-18 22:30N 59°44' E 024°35'611.7
2017-Sep-18 22:00N 59°43' E 024°24'611.7
2017-Sep-18 21:30N 59°41' E 024°12'611.7
2017-Sep-18 21:00N 59°39' E 024°01'611.5
2017-Sep-18 20:30N 59°38' E 023°50'611.7
2017-Sep-18 19:57N 59°36' E 023°38'611.8
2017-Sep-18 19:29N 59°34' E 023°28'611.9
2017-Sep-18 19:00N 59°33' E 023°17'611.4
2017-Sep-18 18:27N 59°31' E 023°05'28311.3
2017-Sep-17 17:23N 56°07' E 016°56'411.2
2017-Sep-17 17:00N 56°05' E 016°50'611.2
2017-Sep-17 16:30N 56°02' E 016°41'611.1
2017-Sep-17 16:00N 55°59' E 016°33'611.0
2017-Sep-17 15:30N 55°56' E 016°24'611.0
2017-Sep-17 15:00N 55°53' E 016°16'511.0
2017-Sep-17 14:30N 55°51' E 016°07'511.0
2017-Sep-17 14:00N 55°48' E 015°59'511.0
2017-Sep-17 13:30N 55°45' E 015°50'611.4
2017-Sep-17 13:00N 55°42' E 015°41'611.3
2017-Sep-17 12:30N 55°40' E 015°33'611.2
2017-Sep-17 12:00N 55°37' E 015°24'611.2
2017-Sep-17 11:30N 55°34' E 015°15'611.4
2017-Sep-17 11:00N 55°32' E 015°06'611.5
2017-Sep-17 10:30N 55°29' E 014°57'611.9
2017-Sep-17 09:59N 55°26' E 014°48'611.6
2017-Sep-17 09:26N 55°23' E 014°38'511.4
2017-Sep-17 08:59N 55°19' E 014°32'1011.4
2017-Sep-17 08:04N 55°11' E 014°21'111.3
2017-Sep-17 08:00N 55°10' E 014°20'811.2
2017-Sep-17 07:15N 55°03' E 014°11'311.4
2017-Sep-17 07:00N 55°01' E 014°08'611.0
2017-Sep-17 06:30N 54°60' E 013°59'914.7
2017-Sep-17 05:52N 54°56' E 013°43'818.9
2017-Sep-17 05:27N 54°54' E 013°30'915.0
2017-Sep-17 04:49N 54°51' E 013°15'411.4
2017-Sep-17 04:28N 54°50' E 013°08'511.5
2017-Sep-17 04:00N 54°48' E 012°59'611.7
2017-Sep-17 03:30N 54°46' E 012°50'1411.8
2017-Sep-17 02:17N 54°39' E 012°28'312.0
2017-Sep-17 02:00N 54°37' E 012°23'911.4
2017-Sep-17 01:15N 54°30' E 012°16'312.1
2017-Sep-17 00:59N 54°27' E 012°14'511.2
2017-Sep-17 00:30N 54°24' E 012°06'711.8
2017-Sep-16 23:56N 54°24' E 011°54'510.9
2017-Sep-16 23:29N 54°25' E 011°46'511.3
2017-Sep-16 23:00N 54°27' E 011°37'611.8
2017-Sep-16 22:31N 54°30' E 011°28'611.2
2017-Sep-16 22:00N 54°32' E 011°20'611.6
2017-Sep-16 21:31N 54°35' E 011°11'611.8
2017-Sep-16 21:00N 54°38' E 011°02'611.5
2017-Sep-16 20:30N 54°41' E 010°54'5 9.7
2017-Sep-16 20:00N 54°46' E 010°51'510.6
2017-Sep-16 19:31N 54°51' E 010°52'510.4
2017-Sep-16 19:00N 54°56' E 010°55'714.3
2017-Sep-16 18:30N 55°02' E 011°01'918.1
2017-Sep-16 18:00N 55°11' E 011°04'816.4
2017-Sep-16 17:30N 55°19' E 011°02'11111.4
2017-Sep-16 07:49N 57°08' E 011°36'410.6
2017-Sep-16 07:27N 57°12' E 011°34'614.1
2017-Sep-16 07:00N 57°18' E 011°30'1018.7
2017-Sep-16 06:30N 57°27' E 011°24'712.6
2017-Sep-16 05:56N 57°32' E 011°16'510.6
2017-Sep-16 05:29N 57°35' E 011°09'511.0
2017-Sep-16 04:59N 57°39' E 011°02'511.3
2017-Sep-16 04:30N 57°43' E 010°54'611.2
2017-Sep-16 03:59N 57°46' E 010°46'714.7
2017-Sep-16 03:30N 57°48' E 010°33'1018.7
2017-Sep-16 02:57N 57°46' E 010°14'918.7
2017-Sep-16 02:30N 57°44' E 009°59'917.8
2017-Sep-16 02:00N 57°42' E 009°43'916.7
2017-Sep-16 01:28N 57°40' E 009°26'29215.8
2017-Sep-15 06:56N 53°33' E 004°47'1617.4
2017-Sep-15 06:01N 53°18' E 004°38'214.8
2017-Sep-15 05:55N 53°17' E 004°37'614.7
2017-Sep-15 05:31N 53°12' E 004°33'814.9
2017-Sep-15 05:00N 53°05' E 004°26'814.9
2017-Sep-15 04:30N 52°59' E 004°20'714.9
2017-Sep-15 04:00N 52°52' E 004°14'714.8
2017-Sep-15 03:30N 52°46' E 004°07'714.9
2017-Sep-15 03:00N 52°40' E 004°00'814.9
2017-Sep-15 02:30N 52°34' E 003°52'4415.1
2017-Sep-14 23:33N 51°54' E 003°22'116.1
2017-Sep-14 23:29N 51°53' E 003°22'916.2
2017-Sep-14 22:58N 51°45' E 003°17'4 8.3
2017-Sep-14 22:30N 51°42' E 003°14'613.3
2017-Sep-14 22:01N 51°36' E 003°10'916.6
2017-Sep-14 21:28N 51°28' E 003°02'511.2
2017-Sep-14 21:00N 51°24' E 003°06'816.0
2017-Sep-14 20:30N 51°24' E 003°19'816.2
2017-Sep-14 20:00N 51°25' E 003°32'5 9.1
2017-Sep-14 19:31N 51°26' E 003°39'612.5
2017-Sep-14 19:00N 51°22' E 003°46'612.8
2017-Sep-14 18:30N 51°23' E 003°56'4 8.8
2017-Sep-14 18:00N 51°25' E 004°02'510.6
2017-Sep-14 17:30N 51°24' E 004°10'5 9.9
2017-Sep-14 17:00N 51°20' E 004°16'3 5.8
2017-Sep-14 16:30N 51°17' E 004°16'0 0.2
2017-Sep-14 15:57N 51°18' E 004°15'0 0.0
2017-Sep-14 15:27N 51°18' E 004°15'0 0.0
2017-Sep-14 14:57N 51°18' E 004°15'0 0.0
2017-Sep-14 14:30N 51°18' E 004°15'0 0.0
2017-Sep-14 13:57N 51°18' E 004°15'0 0.0
2017-Sep-14 13:21N 51°18' E 004°15'0 0.0
2017-Sep-14 12:57N 51°18' E 004°15'0 0.0
2017-Sep-14 12:30N 51°18' E 004°15'0 0.0
2017-Sep-14 12:00N 51°18' E 004°15'0 0.0
2017-Sep-14 11:30N 51°18' E 004°15'0 0.0
2017-Sep-14 11:00N 51°18' E 004°15'0 0.0
2017-Sep-14 10:27N 51°18' E 004°15'0 0.0
2017-Sep-14 10:00N 51°18' E 004°15'0 0.0
2017-Sep-14 09:27N 51°18' E 004°15'0 0.0
2017-Sep-14 08:57N 51°18' E 004°15'0 0.0
2017-Sep-14 08:30N 51°18' E 004°15'0 0.0
2017-Sep-14 07:58N 51°18' E 004°15'0 0.0
2017-Sep-14 07:28N 51°18' E 004°15'0 0.0
2017-Sep-14 06:58N 51°18' E 004°15'0 0.0
2017-Sep-14 06:28N 51°18' E 004°15'0 0.0
2017-Sep-14 05:58N 51°18' E 004°15'0 0.0
2017-Sep-14 05:28N 51°18' E 004°15'0 0.0
2017-Sep-14 04:58N 51°18' E 004°15'0 0.0
2017-Sep-14 04:28N 51°18' E 004°15'0 0.0
2017-Sep-14 03:58N 51°18' E 004°15'0 0.0
2017-Sep-14 03:19N 51°18' E 004°15'0 0.0
2017-Sep-14 02:55N 51°18' E 004°15'0 0.0
2017-Sep-14 02:28N 51°18' E 004°15'0 0.0
2017-Sep-14 01:58N 51°18' E 004°15'0 0.0
2017-Sep-14 01:28N 51°18' E 004°15'0 0.0
2017-Sep-14 00:46N 51°18' E 004°15'0 0.0
2017-Sep-14 00:28N 51°18' E 004°15'0 0.0
2017-Sep-13 23:58N 51°18' E 004°15'0 0.0
2017-Sep-13 23:28N 51°18' E 004°15'0 0.0
2017-Sep-13 22:58N 51°18' E 004°15'0 0.0
2017-Sep-13 22:28N 51°18' E 004°15'0 0.0
2017-Sep-13 21:58N 51°18' E 004°15'0 0.0
2017-Sep-13 21:22N 51°18' E 004°15'0 0.0
2017-Sep-13 20:58N 51°18' E 004°15'0 0.0
2017-Sep-13 20:28N 51°18' E 004°15'0 0.0
2017-Sep-13 19:58N 51°18' E 004°15'0 0.0
2017-Sep-13 19:28N 51°18' E 004°15'0 0.0
2017-Sep-13 18:52N 51°18' E 004°15'0 0.0
2017-Sep-13 18:22N 51°18' E 004°15'0 0.0
2017-Sep-13 18:00N 51°18' E 004°15'0 0.0
2017-Sep-13 17:29N 51°18' E 004°15'0 0.0
2017-Sep-13 16:56N 51°18' E 004°15'0 0.0
2017-Sep-13 16:26N 51°18' E 004°15'0 0.0
2017-Sep-13 15:53N 51°18' E 004°15'0 0.0
2017-Sep-13 15:29N 51°18' E 004°15'0 0.0
2017-Sep-13 14:59N 51°18' E 004°15'0 0.0
2017-Sep-13 14:23N 51°18' E 004°15'0 0.0
2017-Sep-13 13:59N 51°18' E 004°15'0 0.0
2017-Sep-13 13:29N 51°18' E 004°15'0 0.0
2017-Sep-13 12:59N 51°18' E 004°15'0 0.0
2017-Sep-13 12:29N 51°18' E 004°15'0 0.0
2017-Sep-13 11:53N 51°18' E 004°15'0 0.0
2017-Sep-13 11:31N 51°18' E 004°15'0 0.0
2017-Sep-13 10:58N 51°18' E 004°15'0 0.0
2017-Sep-13 10:28N 51°18' E 004°15'0 0.0
2017-Sep-13 10:00N 51°18' E 004°15'0 0.0
2017-Sep-13 09:27N 51°18' E 004°15'0 0.0
2017-Sep-13 08:54N 51°18' E 004°15'0 0.0
2017-Sep-13 08:30N 51°18' E 004°15'0 0.0
2017-Sep-13 07:56N 51°18' E 004°15'0 0.0
2017-Sep-13 07:29N 51°17' E 004°15'0 0.0
2017-Sep-13 06:56N 51°18' E 004°15'0 0.0
2017-Sep-13 06:26N 51°18' E 004°15'0 0.0
2017-Sep-13 06:00N 51°18' E 004°15'0 0.0
2017-Sep-13 05:23N 51°18' E 004°15'0 0.0
2017-Sep-13 04:47N 51°18' E 004°15'0 0.0
2017-Sep-13 04:29N 51°18' E 004°15'0 0.0
2017-Sep-13 03:53N 51°18' E 004°15'0 0.0
2017-Sep-13 03:29N 51°18' E 004°15'0 0.0
2017-Sep-13 02:59N 51°18' E 004°15'0 0.0
2017-Sep-13 02:29N 51°18' E 004°15'0 0.0
2017-Sep-13 01:59N 51°18' E 004°15'0 0.0
2017-Sep-13 01:29N 51°18' E 004°15'0 0.0
2017-Sep-13 00:56N 51°18' E 004°15'0 0.0
2017-Sep-13 00:29N 51°18' E 004°15'0 0.0
2017-Sep-13 00:01N 51°18' E 004°15'1 2.9
2017-Sep-12 23:31N 51°19' E 004°16'5 9.1
2017-Sep-12 23:01N 51°23' E 004°13'611.7
2017-Sep-12 22:31N 51°22' E 004°03'4 8.3
2017-Sep-12 22:00N 51°25' E 003°58'713.1
2017-Sep-12 21:30N 51°21' E 003°49'612.2
2017-Sep-12 21:00N 51°25' E 003°42'510.9
2017-Sep-12 20:30N 51°25' E 003°34'3 6.7
2017-Sep-12 20:00N 51°25' E 003°28'816.6
2017-Sep-12 19:30N 51°25' E 003°15'917.2
2017-Sep-12 19:00N 51°24' E 003°01'918.8
2017-Sep-12 18:30N 51°22' E 002°47'4 8.8
2017-Sep-12 18:00N 51°22' E 002°40'3 6.8
2017-Sep-12 17:30N 51°22' E 002°34'4 7.5
2017-Sep-12 17:00N 51°21' E 002°28'3 5.7
2017-Sep-12 16:30N 51°20' E 002°24'3 5.5
2017-Sep-12 16:00N 51°19' E 002°21'3 5.3
2017-Sep-12 15:30N 51°17' E 002°17'4 7.5
2017-Sep-12 15:00N 51°15' E 002°12'1020.0
2017-Sep-12 14:30N 51°10' E 001°58'1021.0
2017-Sep-12 14:00N 51°04' E 001°44'1020.8
2017-Sep-12 13:30N 50°57' E 001°33'6019.2
2017-Sep-12 10:24N 50°20' E 000°18'1020.6
2017-Sep-12 09:55N 50°18' E 000°03'820.1
2017-Sep-12 09:30N 50°16' W 000°10'3119.4
2017-Sep-12 07:54N 50°09' W 000°57'718.3
2017-Sep-12 07:30N 50°07' W 001°08'1117.7
2017-Sep-12 06:54N 50°04' W 001°24'717.0
2017-Sep-12 06:30N 50°02' W 001°34'816.5
2017-Sep-12 06:00N 49°60' W 001°46'1416.1
2017-Sep-12 05:06N 49°56' W 002°08'1816.8
2017-Sep-12 04:02N 49°51' W 002°35'117.8
2017-Sep-12 03:57N 49°51' W 002°37'818.0
2017-Sep-12 03:30N 49°49' W 002°49'1718.3
2017-Sep-12 02:34N 49°42' W 003°13'118.6
2017-Sep-12 02:30N 49°41' W 003°14'918.4
2017-Sep-12 02:00N 49°37' W 003°27'67016.9
2017-Sep-10 10:21N 39°25' W 009°49'1018.6
2017-Sep-10 09:48N 39°14' W 009°50'518.3
2017-Sep-10 09:30N 39°09' W 009°50'918.8
2017-Sep-10 09:00N 38°60' W 009°50'918.5
2017-Sep-10 08:30N 38°50' W 009°51'918.3
2017-Sep-10 08:00N 38°41' W 009°51'918.7
2017-Sep-10 07:30N 38°32' W 009°51'1019.3
2017-Sep-10 07:00N 38°22' W 009°51'1119.3
2017-Sep-10 06:27N 38°11' W 009°51'1319.4
2017-Sep-10 05:47N 37°58' W 009°52'  
Track history (hours):
 
Tides and Currents Weather Stations Pressure Air Temp Water Temp Dewpoint Dewpoint Depression Visibility Wind Speed Wind Dir Waves Ship Positions

MSC Jordan

Last reported at 2017-Sep-20 02:00 UTC. Time now 2017-Sep-20 02:15 UTC.
Position N 59°52' E 030°12'.

Length 237 m; draft 8 m.

Type: Ship. MMSI: 355194000.

Date/timePositionNaut miles runAvg speedWind from/ knotsBaromVisibWave heightAir tempDewpointWater temp
2017-Sep-20 02:00N 59°52' E 030°12'0 0.0
2017-Sep-20 01:30N 59°52' E 030°12'0 0.0
2017-Sep-20 01:00N 59°52' E 030°12'0 0.0
2017-Sep-20 00:24N 59°52' E 030°12'0 0.0
2017-Sep-20 00:00N 59°52' E 030°12'0 0.0
2017-Sep-19 23:30N 59°52' E 030°12'0 0.0
2017-Sep-19 23:00N 59°52' E 030°12'0 0.0
2017-Sep-19 22:30N 59°52' E 030°12'0 0.0
2017-Sep-19 22:00N 59°52' E 030°12'0 0.0
2017-Sep-19 21:30N 59°52' E 030°12'0 0.0
2017-Sep-19 20:54N 59°52' E 030°12'0 0.0
2017-Sep-19 20:30N 59°52' E 030°12'0 0.0
2017-Sep-19 19:48N 59°52' E 030°12'0 0.0
2017-Sep-19 19:30N 59°52' E 030°12'0 0.0
2017-Sep-19 18:54N 59°52' E 030°12'0 0.0
2017-Sep-19 18:24N 59°52' E 030°12'0 0.0
2017-Sep-19 18:00N 59°52' E 030°12'0 0.0
2017-Sep-19 17:30N 59°52' E 030°12'0 0.0
2017-Sep-19 16:48N 59°52' E 030°12'0 0.0
2017-Sep-19 16:30N 59°52' E 030°12'0 0.0
2017-Sep-19 16:00N 59°52' E 030°12'0 0.0
2017-Sep-19 15:24N 59°52' E 030°12'0 0.0
2017-Sep-19 15:00N 59°52' E 030°12'1 1.4
2017-Sep-19 14:30N 59°53' E 030°11'3 6.2
2017-Sep-19 14:00N 59°54' E 030°06'510.5
2017-Sep-19 13:30N 59°56' E 029°56'511.0
2017-Sep-19 13:00N 59°59' E 029°46'5 9.7
2017-Sep-19 12:30N 60°00' E 029°37'510.6
2017-Sep-19 12:00N 60°01' E 029°27'14 9.0
2017-Sep-19 10:25N 60°02' E 028°58'410.7
2017-Sep-19 10:00N 60°02' E 028°49'510.7
2017-Sep-19 09:30N 60°02' E 028°38'510.4
2017-Sep-19 09:00N 60°03' E 028°28'5 9.7
2017-Sep-19 08:30N 60°05' E 028°20'510.3
2017-Sep-19 08:00N 60°08' E 028°11'510.7
2017-Sep-19 07:30N 60°09' E 028°00'510.8
2017-Sep-19 07:00N 60°10' E 027°50'4 9.0
2017-Sep-19 06:30N 60°09' E 027°41'510.3
2017-Sep-19 06:00N 60°06' E 027°32'917.9
2017-Sep-19 05:30N 60°02' E 027°17'917.4
2017-Sep-19 05:00N 59°58' E 027°02'612.4
2017-Sep-19 04:30N 59°59' E 026°49'611.6
2017-Sep-19 04:00N 59°59' E 026°38'611.3
2017-Sep-19 03:30N 59°58' E 026°27'611.3
2017-Sep-19 03:00N 59°56' E 026°16'3911.6
2017-Sep-18 23:36N 59°47' E 024°60'111.6
2017-Sep-18 23:30N 59°46' E 024°58'611.6
2017-Sep-18 23:00N 59°45' E 024°46'611.7
2017-Sep-18 22:30N 59°44' E 024°35'611.7
2017-Sep-18 22:00N 59°43' E 024°24'611.7
2017-Sep-18 21:30N 59°41' E 024°12'611.7
2017-Sep-18 21:00N 59°39' E 024°01'611.5
2017-Sep-18 20:30N 59°38' E 023°50'611.7
2017-Sep-18 19:57N 59°36' E 023°38'611.8
2017-Sep-18 19:29N 59°34' E 023°28'611.9
2017-Sep-18 19:00N 59°33' E 023°17'611.4
2017-Sep-18 18:27N 59°31' E 023°05'28311.3
2017-Sep-17 17:23N 56°07' E 016°56'411.2
2017-Sep-17 17:00N 56°05' E 016°50'611.2
2017-Sep-17 16:30N 56°02' E 016°41'611.1
2017-Sep-17 16:00N 55°59' E 016°33'611.0
2017-Sep-17 15:30N 55°56' E 016°24'611.0
2017-Sep-17 15:00N 55°53' E 016°16'511.0
2017-Sep-17 14:30N 55°51' E 016°07'511.0
2017-Sep-17 14:00N 55°48' E 015°59'511.0
2017-Sep-17 13:30N 55°45' E 015°50'611.4
2017-Sep-17 13:00N 55°42' E 015°41'611.3
2017-Sep-17 12:30N 55°40' E 015°33'611.2
2017-Sep-17 12:00N 55°37' E 015°24'611.2
2017-Sep-17 11:30N 55°34' E 015°15'611.4
2017-Sep-17 11:00N 55°32' E 015°06'611.5
2017-Sep-17 10:30N 55°29' E 014°57'611.9
2017-Sep-17 09:59N 55°26' E 014°48'611.6
2017-Sep-17 09:26N 55°23' E 014°38'511.4
2017-Sep-17 08:59N 55°19' E 014°32'1011.4
2017-Sep-17 08:04N 55°11' E 014°21'111.3
2017-Sep-17 08:00N 55°10' E 014°20'811.2
2017-Sep-17 07:15N 55°03' E 014°11'311.4
2017-Sep-17 07:00N 55°01' E 014°08'611.0
2017-Sep-17 06:30N 54°60' E 013°59'914.7
2017-Sep-17 05:52N 54°56' E 013°43'818.9
2017-Sep-17 05:27N 54°54' E 013°30'915.0
2017-Sep-17 04:49N 54°51' E 013°15'411.4
2017-Sep-17 04:28N 54°50' E 013°08'511.5
2017-Sep-17 04:00N 54°48' E 012°59'611.7
2017-Sep-17 03:30N 54°46' E 012°50'1411.8
2017-Sep-17 02:17N 54°39' E 012°28'312.0
2017-Sep-17 02:00N 54°37' E 012°23'911.4
2017-Sep-17 01:15N 54°30' E 012°16'312.1
2017-Sep-17 00:59N 54°27' E 012°14'511.2
2017-Sep-17 00:30N 54°24' E 012°06'711.8
2017-Sep-16 23:56N 54°24' E 011°54'510.9
2017-Sep-16 23:29N 54°25' E 011°46'511.3
2017-Sep-16 23:00N 54°27' E 011°37'611.8
2017-Sep-16 22:31N 54°30' E 011°28'611.2
2017-Sep-16 22:00N 54°32' E 011°20'611.6
2017-Sep-16 21:31N 54°35' E 011°11'611.8
2017-Sep-16 21:00N 54°38' E 011°02'611.5
2017-Sep-16 20:30N 54°41' E 010°54'5 9.7
2017-Sep-16 20:00N 54°46' E 010°51'510.6
2017-Sep-16 19:31N 54°51' E 010°52'510.4
2017-Sep-16 19:00N 54°56' E 010°55'714.3
2017-Sep-16 18:30N 55°02' E 011°01'918.1
2017-Sep-16 18:00N 55°11' E 011°04'816.4
2017-Sep-16 17:30N 55°19' E 011°02'11111.4
2017-Sep-16 07:49N 57°08' E 011°36'410.6
2017-Sep-16 07:27N 57°12' E 011°34'614.1
2017-Sep-16 07:00N 57°18' E 011°30'1018.7
2017-Sep-16 06:30N 57°27' E 011°24'712.6
2017-Sep-16 05:56N 57°32' E 011°16'510.6
2017-Sep-16 05:29N 57°35' E 011°09'511.0
2017-Sep-16 04:59N 57°39' E 011°02'511.3
2017-Sep-16 04:30N 57°43' E 010°54'611.2
2017-Sep-16 03:59N 57°46' E 010°46'714.7
2017-Sep-16 03:30N 57°48' E 010°33'1018.7
2017-Sep-16 02:57N 57°46' E 010°14'918.7
2017-Sep-16 02:30N 57°44' E 009°59'917.8
2017-Sep-16 02:00N 57°42' E 009°43'916.7
2017-Sep-16 01:28N 57°40' E 009°26'29215.8
2017-Sep-15 06:56N 53°33' E 004°47'1617.4
2017-Sep-15 06:01N 53°18' E 004°38'214.8
2017-Sep-15 05:55N 53°17' E 004°37'614.7
2017-Sep-15 05:31N 53°12' E 004°33'814.9
2017-Sep-15 05:00N 53°05' E 004°26'814.9
2017-Sep-15 04:30N 52°59' E 004°20'714.9
2017-Sep-15 04:00N 52°52' E 004°14'714.8
2017-Sep-15 03:30N 52°46' E 004°07'714.9
2017-Sep-15 03:00N 52°40' E 004°00'814.9
2017-Sep-15 02:30N 52°34' E 003°52'4415.1
2017-Sep-14 23:33N 51°54' E 003°22'116.1
2017-Sep-14 23:29N 51°53' E 003°22'916.2
2017-Sep-14 22:58N 51°45' E 003°17'4 8.3
2017-Sep-14 22:30N 51°42' E 003°14'613.3
2017-Sep-14 22:01N 51°36' E 003°10'916.6
2017-Sep-14 21:28N 51°28' E 003°02'511.2
2017-Sep-14 21:00N 51°24' E 003°06'816.0
2017-Sep-14 20:30N 51°24' E 003°19'816.2
2017-Sep-14 20:00N 51°25' E 003°32'5 9.1
2017-Sep-14 19:31N 51°26' E 003°39'612.5
2017-Sep-14 19:00N 51°22' E 003°46'612.8
2017-Sep-14 18:30N 51°23' E 003°56'4 8.8
2017-Sep-14 18:00N 51°25' E 004°02'510.6
2017-Sep-14 17:30N 51°24' E 004°10'5 9.9
2017-Sep-14 17:00N 51°20' E 004°16'3 5.8
2017-Sep-14 16:30N 51°17' E 004°16'0 0.2
2017-Sep-14 15:57N 51°18' E 004°15'0 0.0
2017-Sep-14 15:27N 51°18' E 004°15'0 0.0
2017-Sep-14 14:57N 51°18' E 004°15'0 0.0
2017-Sep-14 14:30N 51°18' E 004°15'0 0.0
2017-Sep-14 13:57N 51°18' E 004°15'0 0.0
2017-Sep-14 13:21N 51°18' E 004°15'0 0.0
2017-Sep-14 12:57N 51°18' E 004°15'0 0.0
2017-Sep-14 12:30N 51°18' E 004°15'0 0.0
2017-Sep-14 12:00N 51°18' E 004°15'0 0.0
2017-Sep-14 11:30N 51°18' E 004°15'0 0.0
2017-Sep-14 11:00N 51°18' E 004°15'0 0.0
2017-Sep-14 10:27N 51°18' E 004°15'0 0.0
2017-Sep-14 10:00N 51°18' E 004°15'0 0.0
2017-Sep-14 09:27N 51°18' E 004°15'0 0.0
2017-Sep-14 08:57N 51°18' E 004°15'0 0.0
2017-Sep-14 08:30N 51°18' E 004°15'0 0.0
2017-Sep-14 07:58N 51°18' E 004°15'0 0.0
2017-Sep-14 07:28N 51°18' E 004°15'0 0.0
2017-Sep-14 06:58N 51°18' E 004°15'0 0.0
2017-Sep-14 06:28N 51°18' E 004°15'0 0.0
2017-Sep-14 05:58N 51°18' E 004°15'0 0.0
2017-Sep-14 05:28N 51°18' E 004°15'0 0.0
2017-Sep-14 04:58N 51°18' E 004°15'0 0.0
2017-Sep-14 04:28N 51°18' E 004°15'0 0.0
2017-Sep-14 03:58N 51°18' E 004°15'0 0.0
2017-Sep-14 03:19N 51°18' E 004°15'0 0.0
2017-Sep-14 02:55N 51°18' E 004°15'0 0.0
2017-Sep-14 02:28N 51°18' E 004°15'0 0.0
2017-Sep-14 01:58N 51°18' E 004°15'0 0.0
2017-Sep-14 01:28N 51°18' E 004°15'0 0.0
2017-Sep-14 00:46N 51°18' E 004°15'0 0.0
2017-Sep-14 00:28N 51°18' E 004°15'0 0.0
2017-Sep-13 23:58N 51°18' E 004°15'0 0.0
2017-Sep-13 23:28N 51°18' E 004°15'0 0.0
2017-Sep-13 22:58N 51°18' E 004°15'0 0.0
2017-Sep-13 22:28N 51°18' E 004°15'0 0.0
2017-Sep-13 21:58N 51°18' E 004°15'0 0.0
2017-Sep-13 21:22N 51°18' E 004°15'0 0.0
2017-Sep-13 20:58N 51°18' E 004°15'0 0.0
2017-Sep-13 20:28N 51°18' E 004°15'0 0.0
2017-Sep-13 19:58N 51°18' E 004°15'0 0.0
2017-Sep-13 19:28N 51°18' E 004°15'0 0.0
2017-Sep-13 18:52N 51°18' E 004°15'0 0.0
2017-Sep-13 18:22N 51°18' E 004°15'0 0.0
2017-Sep-13 18:00N 51°18' E 004°15'0 0.0
2017-Sep-13 17:29N 51°18' E 004°15'0 0.0
2017-Sep-13 16:56N 51°18' E 004°15'0 0.0
2017-Sep-13 16:26N 51°18' E 004°15'0 0.0
2017-Sep-13 15:53N 51°18' E 004°15'0 0.0
2017-Sep-13 15:29N 51°18' E 004°15'0 0.0
2017-Sep-13 14:59N 51°18' E 004°15'0 0.0
2017-Sep-13 14:23N 51°18' E 004°15'0 0.0
2017-Sep-13 13:59N 51°18' E 004°15'0 0.0
2017-Sep-13 13:29N 51°18' E 004°15'0 0.0
2017-Sep-13 12:59N 51°18' E 004°15'0 0.0
2017-Sep-13 12:29N 51°18' E 004°15'0 0.0
2017-Sep-13 11:53N 51°18' E 004°15'0 0.0
2017-Sep-13 11:31N 51°18' E 004°15'0 0.0
2017-Sep-13 10:58N 51°18' E 004°15'0 0.0
2017-Sep-13 10:28N 51°18' E 004°15'0 0.0
2017-Sep-13 10:00N 51°18' E 004°15'0 0.0
2017-Sep-13 09:27N 51°18' E 004°15'0 0.0
2017-Sep-13 08:54N 51°18' E 004°15'0 0.0
2017-Sep-13 08:30N 51°18' E 004°15'0 0.0
2017-Sep-13 07:56N 51°18' E 004°15'0 0.0
2017-Sep-13 07:29N 51°17' E 004°15'0 0.0
2017-Sep-13 06:56N 51°18' E 004°15'0 0.0
2017-Sep-13 06:26N 51°18' E 004°15'0 0.0
2017-Sep-13 06:00N 51°18' E 004°15'0 0.0
2017-Sep-13 05:23N 51°18' E 004°15'0 0.0
2017-Sep-13 04:47N 51°18' E 004°15'0 0.0
2017-Sep-13 04:29N 51°18' E 004°15'0 0.0
2017-Sep-13 03:53N 51°18' E 004°15'0 0.0
2017-Sep-13 03:29N 51°18' E 004°15'0 0.0
2017-Sep-13 02:59N 51°18' E 004°15'0 0.0
2017-Sep-13 02:29N 51°18' E 004°15'0 0.0
2017-Sep-13 01:59N 51°18' E 004°15'0 0.0
2017-Sep-13 01:29N 51°18' E 004°15'0 0.0
2017-Sep-13 00:56N 51°18' E 004°15'0 0.0
2017-Sep-13 00:29N 51°18' E 004°15'0 0.0
2017-Sep-13 00:01N 51°18' E 004°15'1 2.9
2017-Sep-12 23:31N 51°19' E 004°16'5 9.1
2017-Sep-12 23:01N 51°23' E 004°13'611.7
2017-Sep-12 22:31N 51°22' E 004°03'4 8.3
2017-Sep-12 22:00N 51°25' E 003°58'713.1
2017-Sep-12 21:30N 51°21' E 003°49'612.2
2017-Sep-12 21:00N 51°25' E 003°42'510.9
2017-Sep-12 20:30N 51°25' E 003°34'3 6.7
2017-Sep-12 20:00N 51°25' E 003°28'816.6
2017-Sep-12 19:30N 51°25' E 003°15'917.2
2017-Sep-12 19:00N 51°24' E 003°01'918.8
2017-Sep-12 18:30N 51°22' E 002°47'4 8.8
2017-Sep-12 18:00N 51°22' E 002°40'3 6.8
2017-Sep-12 17:30N 51°22' E 002°34'4 7.5
2017-Sep-12 17:00N 51°21' E 002°28'3 5.7
2017-Sep-12 16:30N 51°20' E 002°24'3 5.5
2017-Sep-12 16:00N 51°19' E 002°21'3 5.3
2017-Sep-12 15:30N 51°17' E 002°17'4 7.5
2017-Sep-12 15:00N 51°15' E 002°12'1020.0
2017-Sep-12 14:30N 51°10' E 001°58'1021.0
2017-Sep-12 14:00N 51°04' E 001°44'1020.8
2017-Sep-12 13:30N 50°57' E 001°33'6019.2
2017-Sep-12 10:24N 50°20' E 000°18'1020.6
2017-Sep-12 09:55N 50°18' E 000°03'820.1
2017-Sep-12 09:30N 50°16' W 000°10'3119.4
2017-Sep-12 07:54N 50°09' W 000°57'718.3
2017-Sep-12 07:30N 50°07' W 001°08'1117.7
2017-Sep-12 06:54N 50°04' W 001°24'717.0
2017-Sep-12 06:30N 50°02' W 001°34'816.5
2017-Sep-12 06:00N 49°60' W 001°46'1416.1
2017-Sep-12 05:06N 49°56' W 002°08'1816.8
2017-Sep-12 04:02N 49°51' W 002°35'117.8
2017-Sep-12 03:57N 49°51' W 002°37'818.0
2017-Sep-12 03:30N 49°49' W 002°49'1718.3
2017-Sep-12 02:34N 49°42' W 003°13'118.6
2017-Sep-12 02:30N 49°41' W 003°14'918.4
2017-Sep-12 02:00N 49°37' W 003°27'67016.9
2017-Sep-10 10:21N 39°25' W 009°49'1018.6
2017-Sep-10 09:48N 39°14' W 009°50'518.3
2017-Sep-10 09:30N 39°09' W 009°50'918.8
2017-Sep-10 09:00N 38°60' W 009°50'918.5
2017-Sep-10 08:30N 38°50' W 009°51'918.3
2017-Sep-10 08:00N 38°41' W 009°51'918.7
2017-Sep-10 07:30N 38°32' W 009°51'1019.3
2017-Sep-10 07:00N 38°22' W 009°51'1119.3
2017-Sep-10 06:27N 38°11' W 009°51'1319.4
2017-Sep-10 05:47N 37°58' W 009°52'  

Dump ship's entire track history